Time;durP1;ratioP1;P1;durP2;ratioP2;P2;SDS_P1;SDS_P2;PMS_P1;PMS_P2;Temp;Humidity;BMP_temperature;BMP_pressure;BME280_temperature;BME280_humidity;BME280_pressure;Samples;Min_cycle;Max_cycle;Signal;HPM_P1;HPM_P2
2023/11/20 05:02:28;;;;;;;1.00;0.90;;;11.10;97.30;;;;;;5042727;23;20508;-88
2023/11/20 05:04:54;;;;;;;0.90;0.80;;;11.10;97.30;;;;;;4882562;29;20434;-89
2023/11/20 05:07:20;;;;;;;0.90;0.80;;;11.10;97.30;;;;;;4882555;29;20444;-88
2023/11/20 05:09:45;;;;;;;15.13;1.67;;;11.10;97.30;;;;;;4899161;29;20434;-89
2023/11/20 05:12:11;;;;;;;9.73;1.30;;;11.10;97.30;;;;;;4893807;29;20235;-87
2023/11/20 05:14:36;;;;;;;1.10;1.00;;;11.10;97.30;;;;;;4889219;29;20275;-88
2023/11/20 05:17:02;;;;;;;0.97;0.87;;;11.10;97.30;;;;;;4893746;29;20273;-88
2023/11/20 05:19:28;;;;;;;0.90;0.80;;;11.10;97.30;;;;;;4889886;29;20236;-88
2023/11/20 05:21:53;;;;;;;0.90;0.80;;;11.20;97.30;;;;;;4894758;29;20232;-89
2023/11/20 05:24:19;;;;;;;1.00;0.90;;;11.20;97.30;;;;;;4911350;29;20179;-86
2023/11/20 05:26:44;;;;;;;0.90;0.80;;;11.20;97.30;;;;;;4890509;29;20184;-88
2023/11/20 05:29:12;;;;;;;1.00;0.90;;;11.20;97.30;;;;;;4888647;29;20670;-88
2023/11/20 05:31:37;;;;;;;0.90;0.80;;;11.20;97.30;;;;;;4888519;29;20212;-88
2023/11/20 05:34:03;;;;;;;0.90;0.80;;;11.10;97.30;;;;;;4885593;29;20437;-87
2023/11/20 05:36:28;;;;;;;1.00;0.90;;;11.10;97.30;;;;;;4904040;29;20184;-87
2023/11/20 05:38:55;;;;;;;8.33;1.17;;;11.20;97.30;;;;;;4880949;29;20568;-88
2023/11/20 05:41:20;;;;;;;1.10;1.10;;;11.20;97.30;;;;;;4898948;29;20205;-88
2023/11/20 05:43:46;;;;;;;1.00;0.90;;;11.20;97.30;;;;;;4913445;29;20425;-89
2023/11/20 05:46:14;;;;;;;0.90;0.80;;;11.20;97.30;;;;;;4897925;29;20184;-89
2023/11/20 05:48:40;;;;;;;1.00;0.90;;;11.20;97.30;;;;;;4895227;29;20279;-87
2023/11/20 05:51:06;;;;;;;0.90;0.80;;;11.20;97.30;;;;;;4888736;29;20943;-88
2023/11/20 05:53:31;;;;;;;1.00;0.90;;;11.20;97.30;;;;;;4907040;29;20184;-86
2023/11/20 05:55:57;;;;;;;1.00;0.90;;;11.20;97.30;;;;;;4897787;29;20192;-88
2023/11/20 05:58:22;;;;;;;1.00;0.90;;;11.20;97.30;;;;;;4891205;29;20315;-87
2023/11/20 06:00:48;;;;;;;1.00;0.90;;;11.20;97.30;;;;;;4894368;29;20224;-88
2023/11/20 06:03:13;;;;;;;1.00;0.90;;;11.30;97.30;;;;;;4899359;29;20188;-88
2023/11/20 06:05:39;;;;;;;2.30;1.57;;;11.30;97.30;;;;;;4895318;29;20314;-87
2023/11/20 06:08:04;;;;;;;3.57;1.10;;;11.30;97.30;;;;;;4897627;29;20180;-87
2023/11/20 06:10:30;;;;;;;4.00;1.40;;;11.30;97.30;;;;;;4891411;29;20224;-88
2023/11/20 06:12:55;;;;;;;1.07;0.97;;;11.30;97.30;;;;;;4898522;29;20220;-88
2023/11/20 06:15:21;;;;;;;1.10;1.00;;;11.30;97.30;;;;;;4897839;29;20199;-86
2023/11/20 06:17:46;;;;;;;1.00;0.90;;;11.40;97.30;;;;;;4896962;29;20738;-87
2023/11/20 06:20:13;;;;;;;1.00;0.90;;;11.40;97.30;;;;;;4897721;29;20786;-88
2023/11/20 06:22:41;;;;;;;0.90;0.80;;;11.30;97.30;;;;;;4890260;29;20208;-87
2023/11/20 06:25:07;;;;;;;1.00;0.90;;;11.30;97.30;;;;;;4886009;29;20799;-87
2023/11/20 06:27:33;;;;;;;0.93;0.83;;;11.30;97.30;;;;;;4897719;29;20481;-88
2023/11/20 06:29:58;;;;;;;3.43;1.83;;;11.30;97.30;;;;;;4894215;29;20425;-87
2023/11/20 06:32:24;;;;;;;0.90;0.80;;;11.30;97.30;;;;;;4887985;29;20211;-87
2023/11/20 06:34:50;;;;;;;1.00;0.90;;;11.30;97.30;;;;;;4886106;29;20197;-86
2023/11/20 06:37:16;;;;;;;1.67;1.10;;;11.30;97.30;;;;;;4882072;29;20441;-86
2023/11/20 06:39:42;;;;;;;1.03;0.93;;;11.30;97.30;;;;;;4888313;29;20209;-86
2023/11/20 06:42:08;;;;;;;0.93;0.83;;;11.30;97.30;;;;;;4890386;29;20200;-86
2023/11/20 06:44:37;;;;;;;1.10;1.00;;;11.30;97.30;;;;;;4893830;29;20414;-87
2023/11/20 06:47:03;;;;;;;1.00;0.90;;;11.30;97.30;;;;;;4886294;29;20185;-86
2023/11/20 06:49:29;;;;;;;0.90;0.80;;;11.30;97.30;;;;;;4889598;29;20957;-87
2023/11/20 06:51:54;;;;;;;1.13;1.03;;;11.30;97.30;;;;;;4877583;29;20215;-87
2023/11/20 06:54:20;;;;;;;1.43;0.90;;;11.20;97.30;;;;;;4880122;29;20189;-87
2023/11/20 06:56:46;;;;;;;1.30;1.20;;;11.30;97.30;;;;;;4905096;29;20192;-87
2023/11/20 06:59:12;;;;;;;1.53;1.43;;;11.30;97.30;;;;;;4900997;29;20204;-87
2023/11/20 07:01:44;;;;;;;1.00;0.90;;;11.30;97.30;;;;;;4910904;29;20991;-86
2023/11/20 07:04:09;;;;;;;0.90;0.80;;;11.30;97.30;;;;;;4897791;29;20216;-88
2023/11/20 07:06:37;;;;;;;1.10;1.00;;;11.30;97.30;;;;;;4896538;29;20984;-87
2023/11/20 07:09:11;;;;;;;0.90;0.80;;;11.30;97.30;;;;;;4881419;29;20193;-87
2023/11/20 07:11:37;;;;;;;1.10;1.00;;;11.30;97.30;;;;;;4904905;29;20477;-86
2023/11/20 07:14:03;;;;;;;1.00;0.90;;;11.40;97.30;;;;;;4887209;29;20464;-87
2023/11/20 07:16:29;;;;;;;1.10;1.00;;;11.40;97.30;;;;;;4892137;29;20209;-86
2023/11/20 07:18:54;;;;;;;0.90;0.80;;;11.40;97.30;;;;;;4895426;29;20205;-87
2023/11/20 07:21:20;;;;;;;1.00;0.90;;;11.40;97.30;;;;;;4894169;29;20631;-86
2023/11/20 07:23:46;;;;;;;0.93;0.83;;;11.40;97.30;;;;;;4888456;29;20186;-88
2023/11/20 07:26:17;;;;;;;1.00;0.90;;;11.40;97.30;;;;;;4894779;29;20719;-87
2023/11/20 07:28:43;;;;;;;0.90;0.80;;;11.40;97.30;;;;;;4894663;29;20186;-88
2023/11/20 07:31:08;;;;;;;2.63;1.10;;;11.50;97.30;;;;;;4897747;29;20456;-87
2023/11/20 07:33:34;;;;;;;1.10;1.00;;;11.50;97.30;;;;;;4890317;29;20216;-87
2023/11/20 07:35:59;;;;;;;3.47;1.40;;;11.50;97.30;;;;;;4894633;29;20280;-87
2023/11/20 07:38:25;;;;;;;5.13;1.20;;;11.50;97.30;;;;;;4897895;29;20241;-87
2023/11/20 07:40:51;;;;;;;1.00;0.90;;;11.50;97.30;;;;;;4897293;29;20216;-87
2023/11/20 07:43:17;;;;;;;0.90;0.80;;;11.60;97.30;;;;;;4907513;29;20265;-87
2023/11/20 07:45:42;;;;;;;0.90;0.80;;;11.60;97.30;;;;;;4897709;29;21021;-87
2023/11/20 07:48:09;;;;;;;0.90;0.80;;;11.60;97.30;;;;;;4885820;29;20193;-87
2023/11/20 07:50:35;;;;;;;0.90;0.80;;;11.60;97.30;;;;;;4900834;29;20189;-87
2023/11/20 07:53:00;;;;;;;1.33;1.33;;;11.60;97.30;;;;;;4897790;29;20435;-87
2023/11/20 07:55:26;;;;;;;0.90;0.80;;;11.60;97.30;;;;;;4898003;29;20196;-87
2023/11/20 07:57:51;;;;;;;1.00;0.90;;;11.60;97.30;;;;;;4904544;29;20205;-87
2023/11/20 08:00:18;;;;;;;1.10;1.00;;;11.60;97.30;;;;;;4890081;29;20185;-88
2023/11/20 08:02:45;;;;;;;1.00;0.90;;;11.60;97.30;;;;;;4890015;29;20608;-87
2023/11/20 08:05:12;;;;;;;0.90;0.80;;;11.60;97.30;;;;;;4890684;29;20440;-87
2023/11/20 08:07:38;;;;;;;4.30;1.73;;;11.60;97.30;;;;;;4914924;29;20503;-87
2023/11/20 08:10:04;;;;;;;0.90;0.80;;;11.60;97.30;;;;;;4893465;29;20515;-88
2023/11/20 08:12:30;;;;;;;1.83;1.67;;;11.70;97.30;;;;;;4897176;29;20567;-88
2023/11/20 08:14:56;;;;;;;1.87;1.17;;;11.70;97.30;;;;;;4886968;29;20967;-89
2023/11/20 08:17:21;;;;;;;1.20;1.10;;;11.70;97.30;;;;;;4880170;29;20458;-88
2023/11/20 08:19:47;;;;;;;1.10;1.00;;;11.80;97.30;;;;;;4880306;29;20213;-88
2023/11/20 08:22:13;;;;;;;2.07;1.90;;;11.80;97.30;;;;;;4882376;29;20204;-87
2023/11/20 08:24:39;;;;;;;0.90;0.80;;;11.80;97.30;;;;;;4896884;29;20473;-86
2023/11/20 08:27:04;;;;;;;1.10;1.00;;;11.80;97.30;;;;;;4888871;29;20324;-87
2023/11/20 08:29:30;;;;;;;0.90;0.80;;;11.70;97.30;;;;;;4899790;29;20256;-88
2023/11/20 08:31:55;;;;;;;0.90;0.80;;;11.70;97.30;;;;;;4879256;29;20277;-87
2023/11/20 08:34:21;;;;;;;0.90;0.80;;;11.60;97.30;;;;;;4895839;29;20191;-88
2023/11/20 08:36:46;;;;;;;0.90;0.80;;;11.60;97.30;;;;;;4894965;29;20201;-87
2023/11/20 08:39:14;;;;;;;1.00;0.90;;;11.50;97.30;;;;;;4895812;29;20271;-88
2023/11/20 08:41:40;;;;;;;1.80;1.27;;;11.50;97.30;;;;;;4881290;29;20301;-88
2023/11/20 08:44:06;;;;;;;1.00;0.90;;;11.50;97.30;;;;;;4895832;29;20414;-87
2023/11/20 08:46:32;;;;;;;1.00;0.90;;;11.60;97.30;;;;;;4879435;29;20429;-87
2023/11/20 08:48:58;;;;;;;0.90;0.80;;;11.60;97.30;;;;;;4879069;29;20508;-87
2023/11/20 08:51:24;;;;;;;0.90;0.80;;;11.60;97.30;;;;;;4879548;29;20349;-87
2023/11/20 08:53:50;;;;;;;0.90;0.80;;;11.70;97.30;;;;;;4879411;29;20544;-87
2023/11/20 08:56:16;;;;;;;1.30;1.20;;;11.70;97.30;;;;;;4881630;29;20191;-86
2023/11/20 08:58:41;;;;;;;1.20;1.10;;;11.70;97.30;;;;;;4879256;29;20472;-88
2023/11/20 09:01:07;;;;;;;1.00;0.90;;;11.70;97.30;;;;;;4885987;29;20241;-87
2023/11/20 09:03:32;;;;;;;0.90;0.80;;;11.70;97.30;;;;;;4896375;29;20185;-86
2023/11/20 09:05:58;;;;;;;4.73;0.93;;;11.70;97.30;;;;;;4886363;29;20185;-87
2023/11/20 09:08:24;;;;;;;1.37;1.30;;;11.80;97.30;;;;;;4896012;29;20553;-87
2023/11/20 09:10:49;;;;;;;3.37;2.60;;;11.80;97.30;;;;;;4886051;29;20680;-89
2023/11/20 09:13:15;;;;;;;2.93;2.13;;;11.80;97.30;;;;;;4885908;29;20189;-86
2023/11/20 09:15:40;;;;;;;0.93;0.83;;;11.80;97.30;;;;;;4884110;29;20216;-87
2023/11/20 09:18:06;;;;;;;1.00;0.90;;;11.80;97.30;;;;;;4878849;29;20216;-87
2023/11/20 09:20:32;;;;;;;1.50;1.40;;;11.80;97.30;;;;;;4883385;29;20231;-85
2023/11/20 09:22:58;;;;;;;1.00;0.90;;;11.70;97.30;;;;;;4892735;29;20241;-86
2023/11/20 09:25:24;;;;;;;0.90;0.80;;;11.60;97.30;;;;;;4879608;29;20439;-87
2023/11/20 09:27:49;;;;;;;1.37;1.10;;;11.50;97.30;;;;;;4878303;29;20237;-87
2023/11/20 09:30:15;;;;;;;1.00;0.90;;;11.40;97.30;;;;;;4892649;29;20608;-87
2023/11/20 09:32:41;;;;;;;1.03;0.93;;;11.40;97.30;;;;;;4879873;29;20209;-87
2023/11/20 09:35:08;;;;;;;1.00;0.90;;;11.50;97.30;;;;;;4880069;29;20489;-87
2023/11/20 09:37:34;;;;;;;0.97;0.87;;;11.60;97.30;;;;;;4878596;29;20637;-87
2023/11/20 09:40:04;;;;;;;1.90;1.60;;;11.60;97.30;;;;;;4893124;29;20449;-86
2023/11/20 09:42:30;;;;;;;1.00;0.90;;;11.70;97.30;;;;;;4895319;29;20676;-88
2023/11/20 09:44:59;;;;;;;0.93;0.83;;;11.80;97.30;;;;;;4895478;29;20434;-87
2023/11/20 09:47:30;;;;;;;0.90;0.80;;;11.90;97.30;;;;;;4898421;29;20428;-87
2023/11/20 09:49:56;;;;;;;1.10;1.00;;;12.00;97.30;;;;;;4883340;29;20489;-87
2023/11/20 09:52:24;;;;;;;1.50;1.40;;;12.00;97.30;;;;;;4891268;29;20492;-87
2023/11/20 09:54:53;;;;;;;1.23;1.10;;;12.10;97.30;;;;;;4889143;29;20430;-88
2023/11/20 09:57:23;;;;;;;1.00;0.90;;;12.10;97.30;;;;;;4888976;29;20467;-87
2023/11/20 09:59:48;;;;;;;1.30;1.20;;;12.10;97.30;;;;;;4895669;29;20480;-87
2023/11/20 10:02:14;;;;;;;0.90;0.80;;;12.10;97.30;;;;;;4883017;29;20867;-86
2023/11/20 10:04:41;;;;;;;1.00;0.90;;;12.10;97.30;;;;;;4893606;29;20196;-86
2023/11/20 10:07:09;;;;;;;1.10;1.00;;;12.10;97.30;;;;;;4882531;29;20429;-87
2023/11/20 10:09:35;;;;;;;1.20;1.10;;;12.10;97.30;;;;;;4888713;29;20942;-88
2023/11/20 10:12:03;;;;;;;6.43;1.43;;;12.20;97.30;;;;;;4888884;29;20540;-87
2023/11/20 10:14:29;;;;;;;0.90;0.90;;;12.20;97.30;;;;;;4884301;29;20807;-86
2023/11/20 10:16:55;;;;;;;1.10;1.00;;;12.20;97.30;;;;;;4897374;29;20456;-87
2023/11/20 10:19:21;;;;;;;1.00;0.90;;;12.20;97.30;;;;;;4894947;29;20465;-88
2023/11/20 10:21:47;;;;;;;3.03;2.10;;;12.20;97.30;;;;;;4882867;29;20472;-88
2023/11/20 10:24:17;;;;;;;1.10;1.00;;;12.20;97.30;;;;;;4890675;29;20486;-88
2023/11/20 10:26:45;;;;;;;2.40;1.83;;;12.20;97.30;;;;;;4895248;29;20421;-87
2023/11/20 10:29:11;;;;;;;1.10;1.00;;;12.20;97.30;;;;;;4888051;29;20432;-87
2023/11/20 10:31:47;;;;;;;0.87;0.77;;;12.20;97.30;;;;;;4890462;29;20446;-86
2023/11/20 10:34:13;;;;;;;1.27;1.17;;;12.20;97.30;;;;;;4892565;29;20181;-86
2023/11/20 10:36:40;;;;;;;1.10;1.00;;;12.20;97.30;;;;;;4889548;29;20429;-85
2023/11/20 10:39:08;;;;;;;1.10;1.00;;;12.20;97.30;;;;;;4898334;29;20469;-86
2023/11/20 10:41:40;;;;;;;0.97;0.87;;;12.20;97.30;;;;;;4887254;29;20868;-87
2023/11/20 10:44:07;;;;;;;4.33;1.10;;;12.20;97.30;;;;;;4883315;29;20448;-86
2023/11/20 10:46:33;;;;;;;4.30;1.10;;;12.20;97.30;;;;;;4886612;29;20434;-87
2023/11/20 10:49:06;;;;;;;1.27;1.17;;;12.20;97.30;;;;;;4879378;29;20496;-87
2023/11/20 10:51:32;;;;;;;1.20;1.10;;;12.20;97.30;;;;;;4882778;29;20205;-86
2023/11/20 10:54:02;;;;;;;0.90;0.80;;;12.20;97.30;;;;;;4882886;29;21021;-87
2023/11/20 10:56:31;;;;;;;1.00;0.90;;;12.20;97.30;;;;;;4879563;29;20433;-86
2023/11/20 10:59:04;;;;;;;1.30;1.20;;;12.20;97.30;;;;;;4881062;29;20468;-86
2023/11/20 11:01:30;;;;;;;1.23;1.13;;;12.10;97.30;;;;;;4890742;29;21004;-86
2023/11/20 11:04:00;;;;;;;1.20;1.10;;;12.10;97.30;;;;;;4880917;29;20808;-87
2023/11/20 11:06:26;;;;;;;0.90;0.90;;;12.10;97.30;;;;;;4897700;29;20465;-87
2023/11/20 11:08:54;;;;;;;1.00;0.90;;;12.10;97.30;;;;;;4882665;29;20433;-87
2023/11/20 11:11:21;;;;;;;0.90;0.80;;;12.10;97.30;;;;;;4883936;29;20825;-87
2023/11/20 11:13:49;;;;;;;0.93;0.83;;;12.10;97.30;;;;;;4889655;29;20524;-87
2023/11/20 11:16:34;;;;;;;0.90;0.80;;;12.10;97.30;;;;;;4883984;29;20832;-86
2023/11/20 11:19:06;;;;;;;1.10;1.00;;;12.10;97.30;;;;;;4879617;29;20477;-86
2023/11/20 11:21:42;;;;;;;2.10;1.00;;;12.10;97.30;;;;;;4902013;29;20452;-86
2023/11/20 11:24:10;;;;;;;1.20;1.10;;;12.10;97.30;;;;;;4882132;29;20425;-86
2023/11/20 11:27:08;;;;;;;2.30;2.00;;;12.10;97.30;;;;;;4883810;29;20436;-86
2023/11/20 11:29:38;;;;;;;0.90;0.80;;;12.00;97.30;;;;;;4872546;29;20506;-87
2023/11/20 11:32:18;;;;;;;1.00;0.90;;;12.00;97.30;;;;;;4896602;29;20438;-87
2023/11/20 11:34:53;;;;;;;1.00;0.90;;;12.00;97.30;;;;;;4891147;29;20439;-87
2023/11/20 11:37:30;;;;;;;1.20;1.10;;;12.00;97.30;;;;;;4882891;29;20467;-86
2023/11/20 11:40:45;;;;;;;1.00;0.90;;;12.00;97.30;;;;;;4886608;29;20496;-87
2023/11/20 11:43:35;;;;;;;1.00;0.90;;;12.00;97.30;;;;;;4882729;29;20915;-86
2023/11/20 11:46:03;;;;;;;1.00;0.90;;;11.90;97.30;;;;;;4894165;29;20961;-86
2023/11/20 11:48:38;;;;;;;1.00;0.90;;;11.90;97.30;;;;;;4892475;29;20430;-86
2023/11/20 11:51:04;;;;;;;1.53;1.43;;;11.80;97.30;;;;;;4894329;29;20460;-87
2023/11/20 11:53:30;;;;;;;0.90;0.80;;;11.70;97.30;;;;;;4896341;29;20460;-86
2023/11/20 11:56:02;;;;;;;1.10;1.00;;;11.60;97.30;;;;;;4885371;29;20471;-86
2023/11/20 11:58:32;;;;;;;0.83;0.73;;;11.60;97.30;;;;;;4891478;29;20764;-86
2023/11/20 12:01:18;;;;;;;1.27;1.10;;;11.60;97.30;;;;;;4883087;29;20476;-86
2023/11/20 12:03:46;;;;;;;1.00;0.90;;;11.60;97.30;;;;;;4882418;29;20430;-86
2023/11/20 12:06:13;;;;;;;1.00;0.90;;;11.50;97.30;;;;;;4880722;29;20509;-87
2023/11/20 12:08:39;;;;;;;0.93;0.83;;;11.50;97.30;;;;;;4876741;29;20518;-87
2023/11/20 12:11:05;;;;;;;1.00;0.90;;;11.60;97.30;;;;;;4879353;29;20891;-86
2023/11/20 12:13:31;;;;;;;0.97;0.87;;;11.60;97.30;;;;;;4878237;29;20742;-86
2023/11/20 12:16:07;;;;;;;8.40;1.30;;;11.60;97.30;;;;;;4878293;29;20196;-87
2023/11/20 12:18:37;;;;;;;1.00;0.90;;;11.70;97.30;;;;;;4877762;29;20469;-87
2023/11/20 12:21:07;;;;;;;1.00;0.90;;;11.70;97.30;;;;;;4877404;29;20446;-86
2023/11/20 12:23:38;;;;;;;1.37;1.23;;;11.70;97.30;;;;;;4877008;29;20426;-86
2023/11/20 12:26:12;;;;;;;3.43;2.20;;;11.80;97.30;;;;;;4878481;29;20482;-86
2023/11/20 12:28:38;;;;;;;7.70;1.37;;;11.80;97.30;;;;;;4876994;29;20932;-86
2023/11/20 12:31:10;;;;;;;0.90;0.80;;;11.80;97.30;;;;;;4877045;29;20450;-86
2023/11/20 12:33:42;;;;;;;1.10;1.00;;;11.80;97.30;;;;;;4891847;29;20464;-86
2023/11/20 12:36:09;;;;;;;0.90;0.80;;;11.80;97.30;;;;;;4876746;29;20450;-86
2023/11/20 12:38:37;;;;;;;0.90;0.80;;;11.70;97.30;;;;;;4876205;29;20568;-86
2023/11/20 12:41:06;;;;;;;1.00;0.90;;;11.60;97.30;;;;;;4876238;29;20857;-87
2023/11/20 12:43:32;;;;;;;1.20;1.00;;;11.60;97.30;;;;;;4876617;29;20434;-87
2023/11/20 12:46:04;;;;;;;1.87;1.77;;;11.50;97.30;;;;;;4876085;29;20937;-87
2023/11/20 12:48:30;;;;;;;0.90;0.80;;;11.40;97.30;;;;;;4876530;29;20510;-87
2023/11/20 12:50:55;;;;;;;1.23;1.13;;;11.30;97.30;;;;;;4877215;29;20485;-87
2023/11/20 12:53:22;;;;;;;1.00;0.90;;;11.20;97.30;;;;;;4876300;29;20213;-87
2023/11/20 12:55:50;;;;;;;1.00;0.90;;;11.20;97.30;;;;;;4876155;29;20186;-87
2023/11/20 12:58:17;;;;;;;1.10;1.00;;;11.10;97.30;;;;;;4873400;29;20466;-87
2023/11/20 13:00:43;;;;;;;0.90;0.80;;;11.00;97.30;;;;;;4878813;29;20484;-88
2023/11/20 13:03:17;;;;;;;1.17;1.07;;;11.00;97.30;;;;;;4881502;29;20480;-87
2023/11/20 13:05:53;;;;;;;1.50;1.40;;;10.90;97.30;;;;;;4886680;29;20429;-87
2023/11/20 13:08:20;;;;;;;1.00;0.90;;;10.80;97.30;;;;;;4895080;29;20991;-87
2023/11/20 13:10:57;;;;;;;1.80;1.70;;;10.80;97.30;;;;;;4881517;29;20468;-87
2023/11/20 13:13:24;;;;;;;1.50;1.40;;;10.80;97.30;;;;;;4880375;29;20996;-86
2023/11/20 13:15:51;;;;;;;0.90;0.80;;;10.80;97.30;;;;;;4878973;29;20442;-86
2023/11/20 13:18:17;;;;;;;1.10;1.00;;;10.70;97.30;;;;;;4886652;29;20469;-87
2023/11/20 13:20:45;;;;;;;1.13;1.00;;;10.70;97.30;;;;;;4882437;29;20449;-86
2023/11/20 13:23:18;;;;;;;1.30;1.20;;;10.70;97.30;;;;;;4887302;29;20437;-87
2023/11/20 13:25:45;;;;;;;1.10;1.00;;;10.70;97.30;;;;;;4882162;29;20421;-87
2023/11/20 13:28:13;;;;;;;1.10;1.00;;;10.60;97.30;;;;;;4881701;29;20524;-85
2023/11/20 13:31:00;;;;;;;1.53;1.10;;;10.60;97.30;;;;;;4899124;29;20434;-86
2023/11/20 13:33:28;;;;;;;1.13;1.03;;;10.60;97.30;;;;;;4879317;29;20446;-87
2023/11/20 13:35:58;;;;;;;1.33;1.00;;;10.60;97.30;;;;;;4883970;29;20508;-87
2023/11/20 13:38:31;;;;;;;1.00;0.90;;;10.60;97.30;;;;;;4879919;29;20498;-87
2023/11/20 13:40:57;;;;;;;1.10;1.00;;;10.60;97.30;;;;;;4882349;29;20797;-86
2023/11/20 13:43:24;;;;;;;3.80;1.60;;;10.60;97.30;;;;;;4887184;29;20485;-88
2023/11/20 13:45:51;;;;;;;0.90;0.80;;;10.60;97.30;;;;;;4882875;29;20476;-87
2023/11/20 13:48:19;;;;;;;2.97;1.10;;;10.60;97.30;;;;;;4887481;29;20698;-87
2023/11/20 13:50:44;;;;;;;0.90;0.80;;;10.60;97.30;;;;;;4892854;29;20453;-87
2023/11/20 13:53:12;;;;;;;1.20;1.10;;;10.60;97.30;;;;;;4898706;29;20428;-87
2023/11/20 13:55:40;;;;;;;0.97;0.87;;;10.60;97.30;;;;;;4886348;29;20571;-87
2023/11/20 13:58:05;;;;;;;1.20;1.10;;;10.60;97.30;;;;;;4890460;29;20472;-87
2023/11/20 14:00:32;;;;;;;1.17;1.07;;;10.60;97.30;;;;;;4881016;29;20420;-87
2023/11/20 14:02:57;;;;;;;3.90;2.37;;;10.50;97.30;;;;;;4895897;29;20276;-87
2023/11/20 14:05:23;;;;;;;1.73;1.00;;;10.60;97.30;;;;;;4879905;29;20457;-86
2023/11/20 14:07:49;;;;;;;6.77;1.67;;;10.50;97.30;;;;;;4898678;29;20272;-87
2023/11/20 14:10:15;;;;;;;0.90;0.80;;;10.50;97.30;;;;;;4896314;29;20234;-87
2023/11/20 14:12:42;;;;;;;25.63;1.27;;;10.50;97.30;;;;;;4897986;29;20213;-87
2023/11/20 14:15:08;;;;;;;1.00;0.90;;;10.50;97.30;;;;;;4884872;29;20418;-86
2023/11/20 14:17:34;;;;;;;0.90;0.80;;;10.50;97.30;;;;;;4879597;29;20433;-87
2023/11/20 14:20:00;;;;;;;18.43;1.60;;;10.50;97.30;;;;;;4885920;29;20480;-85
2023/11/20 14:22:27;;;;;;;6.73;1.93;;;10.50;97.30;;;;;;4883596;29;20216;-86
2023/11/20 14:24:53;;;;;;;1.00;0.90;;;10.50;97.30;;;;;;4881183;29;20436;-85
2023/11/20 14:27:19;;;;;;;1.10;1.00;;;10.50;97.30;;;;;;4881011;29;20791;-86
2023/11/20 14:29:44;;;;;;;1.40;1.40;;;10.50;97.30;;;;;;4880065;29;20461;-86
2023/11/20 14:32:13;;;;;;;1.10;1.00;;;10.50;97.30;;;;;;4903597;29;20205;-86
2023/11/20 14:34:38;;;;;;;3.23;1.33;;;10.50;97.30;;;;;;4880864;29;20640;-86
2023/11/20 14:37:06;;;;;;;1.00;0.90;;;10.50;97.30;;;;;;4881794;29;20433;-86
2023/11/20 14:39:32;;;;;;;1.20;1.10;;;10.60;97.30;;;;;;4897761;29;20213;-86
2023/11/20 14:41:58;;;;;;;2.43;2.23;;;10.60;97.30;;;;;;4888792;29;20537;-86
2023/11/20 14:44:26;;;;;;;1.30;1.20;;;10.50;97.30;;;;;;4883637;29;20257;-86
2023/11/20 14:46:52;;;;;;;1.47;1.37;;;10.50;97.30;;;;;;4882267;29;20213;-87
2023/11/20 14:49:18;;;;;;;1.20;1.10;;;10.60;97.30;;;;;;4886084;29;20504;-86
2023/11/20 14:51:43;;;;;;;1.30;1.20;;;10.50;97.30;;;;;;4895709;29;20956;-86
2023/11/20 14:54:11;;;;;;;2.73;1.67;;;10.60;97.30;;;;;;4888635;29;20197;-86
2023/11/20 14:56:39;;;;;;;1.10;1.00;;;10.50;97.30;;;;;;4880578;29;20237;-86
2023/11/20 14:59:05;;;;;;;1.50;1.40;;;10.60;97.30;;;;;;4897139;29;20468;-86
2023/11/20 15:01:31;;;;;;;1.80;1.70;;;10.60;97.30;;;;;;4892472;29;20549;-86
2023/11/20 15:03:56;;;;;;;2.23;2.03;;;10.50;97.30;;;;;;4880494;29;20517;-87
2023/11/20 15:06:22;;;;;;;1.90;1.80;;;10.50;97.30;;;;;;4880392;29;20185;-86
2023/11/20 15:08:48;;;;;;;11.00;1.53;;;10.50;97.30;;;;;;4882990;29;20181;-87
2023/11/20 15:11:14;;;;;;;3.67;1.50;;;10.50;97.30;;;;;;4885103;29;20476;-86
2023/11/20 15:13:40;;;;;;;1.37;1.27;;;10.50;97.30;;;;;;4880371;29;20204;-86
2023/11/20 15:16:06;;;;;;;1.17;1.13;;;10.50;97.30;;;;;;4884361;29;20426;-85
2023/11/20 15:18:33;;;;;;;1.10;1.00;;;10.50;97.30;;;;;;4887000;29;20469;-85
2023/11/20 15:20:59;;;;;;;1.00;0.90;;;10.50;97.30;;;;;;4893281;29;20536;-86
2023/11/20 15:23:26;;;;;;;1.30;1.20;;;10.50;97.30;;;;;;4884445;29;20481;-87
2023/11/20 15:25:52;;;;;;;1.30;1.20;;;10.40;97.30;;;;;;4901422;29;20437;-87
2023/11/20 15:28:20;;;;;;;2.70;1.50;;;10.40;97.30;;;;;;4880238;29;20853;-86
2023/11/20 15:30:45;;;;;;;1.00;0.90;;;10.40;97.30;;;;;;4896765;29;20201;-87
2023/11/20 15:33:11;;;;;;;1.10;1.00;;;10.50;97.30;;;;;;4897195;29;20429;-88
2023/11/20 15:35:37;;;;;;;1.30;1.20;;;10.50;97.30;;;;;;4879963;29;20356;-88
2023/11/20 15:38:03;;;;;;;0.97;0.90;;;10.50;97.30;;;;;;4899500;29;20668;-88
2023/11/20 15:40:28;;;;;;;1.63;1.60;;;10.40;97.30;;;;;;4886892;29;20425;-87
2023/11/20 15:42:54;;;;;;;1.23;1.13;;;10.40;97.30;;;;;;4878764;29;20228;-87
2023/11/20 15:45:19;;;;;;;0.90;0.80;;;10.40;97.30;;;;;;4879974;29;20193;-87
2023/11/20 15:47:45;;;;;;;1.17;1.07;;;10.40;97.30;;;;;;4899836;29;20185;-87
2023/11/20 15:50:11;;;;;;;1.17;1.07;;;10.30;97.30;;;;;;4886940;29;20192;-87
2023/11/20 15:52:36;;;;;;;1.00;0.90;;;10.30;97.30;;;;;;4883357;29;20588;-87
2023/11/20 15:55:02;;;;;;;2.40;2.20;;;10.30;97.30;;;;;;4886803;29;20612;-88
2023/11/20 15:57:28;;;;;;;1.10;1.00;;;10.30;97.30;;;;;;4896658;29;20188;-87
2023/11/20 15:59:53;;;;;;;3.30;1.40;;;10.30;97.30;;;;;;4883309;29;20488;-88
2023/11/20 16:02:19;;;;;;;1.00;0.90;;;10.30;97.30;;;;;;4882424;29;20244;-87
2023/11/20 16:04:44;;;;;;;0.90;0.80;;;10.30;97.30;;;;;;4887368;29;20181;-87
2023/11/20 16:07:10;;;;;;;0.90;0.90;;;10.30;97.30;;;;;;4878987;29;20185;-86
2023/11/20 16:09:38;;;;;;;2.97;2.60;;;10.30;97.30;;;;;;4882511;29;20197;-87
2023/11/20 16:12:04;;;;;;;2.37;2.17;;;10.30;97.30;;;;;;4897151;29;20219;-87
2023/11/20 16:14:30;;;;;;;4.53;4.20;;;10.30;97.30;;;;;;4895932;29;20456;-86
2023/11/20 16:16:56;;;;;;;2.50;2.30;;;10.30;97.30;;;;;;4890201;29;20461;-87
2023/11/20 16:19:23;;;;;;;2.10;1.97;;;10.30;97.30;;;;;;4889340;29;20955;-87
2023/11/20 16:21:49;;;;;;;3.63;2.60;;;10.30;97.30;;;;;;4881376;29;20457;-87
2023/11/20 16:24:16;;;;;;;1.33;1.30;;;10.30;97.30;;;;;;4885913;29;20448;-88
2023/11/20 16:26:42;;;;;;;1.07;0.97;;;10.30;97.30;;;;;;4886676;29;20516;-87
2023/11/20 16:29:08;;;;;;;1.03;0.93;;;10.20;97.30;;;;;;4882078;29;20437;-86
2023/11/20 16:31:34;;;;;;;1.27;1.17;;;10.20;97.30;;;;;;4895616;29;20212;-87
2023/11/20 16:34:00;;;;;;;3.43;1.17;;;10.10;97.30;;;;;;4883640;29;20441;-86
2023/11/20 16:36:26;;;;;;;1.37;1.33;;;10.10;97.30;;;;;;4878940;29;20630;-87
2023/11/20 16:38:53;;;;;;;1.50;1.40;;;10.00;97.30;;;;;;4884383;29;20285;-87
2023/11/20 16:41:19;;;;;;;3.17;1.67;;;10.00;97.30;;;;;;4882981;29;20521;-88
2023/11/20 16:43:45;;;;;;;1.50;1.40;;;10.00;97.30;;;;;;4887857;29;20710;-88
2023/11/20 16:46:10;;;;;;;1.27;1.17;;;9.90;97.30;;;;;;4880076;29;20185;-87
2023/11/20 16:48:36;;;;;;;1.37;1.27;;;9.90;97.30;;;;;;4878279;29;20224;-87
2023/11/20 16:51:03;;;;;;;3.70;2.67;;;9.90;97.30;;;;;;4878478;29;20216;-88
2023/11/20 16:53:29;;;;;;;2.73;2.53;;;9.90;97.30;;;;;;4877671;29;20197;-87
2023/11/20 16:55:55;;;;;;;3.27;2.03;;;9.90;97.30;;;;;;4895170;29;20859;-88
2023/11/20 16:58:20;;;;;;;1.20;1.10;;;9.90;97.30;;;;;;4878323;29;20795;-88
2023/11/20 17:00:48;;;;;;;1.90;1.50;;;9.90;97.30;;;;;;4894751;29;20786;-88
2023/11/20 17:03:13;;;;;;;1.47;1.37;;;9.90;97.30;;;;;;4878273;29;20280;-87
2023/11/20 17:05:39;;;;;;;2.17;2.00;;;9.90;97.30;;;;;;4878105;29;20453;-87
2023/11/20 17:08:05;;;;;;;5.80;3.17;;;10.00;97.30;;;;;;4878215;29;20627;-88
2023/11/20 17:10:30;;;;;;;2.23;2.03;;;10.00;97.30;;;;;;4894992;29;20181;-88
2023/11/20 17:12:56;;;;;;;3.17;2.20;;;10.00;97.30;;;;;;4893999;29;20185;-88
2023/11/20 17:15:22;;;;;;;3.40;1.90;;;10.00;97.30;;;;;;4895027;29;20517;-87
2023/11/20 17:17:48;;;;;;;1.30;1.20;;;10.00;97.30;;;;;;4878113;29;20288;-89
2023/11/20 17:20:14;;;;;;;1.30;1.20;;;10.00;97.30;;;;;;4895243;29;20182;-88
2023/11/20 17:22:39;;;;;;;1.23;1.13;;;10.00;97.30;;;;;;4878035;29;20449;-86
2023/11/20 17:25:06;;;;;;;1.33;1.23;;;10.00;97.30;;;;;;4879043;29;20182;-88
2023/11/20 17:27:32;;;;;;;2.50;2.30;;;10.00;97.30;;;;;;4878220;29;20193;-87
2023/11/20 17:30:00;;;;;;;1.00;0.90;;;10.00;97.30;;;;;;4878649;29;20952;-87
2023/11/20 17:32:26;;;;;;;2.20;1.83;;;10.00;97.30;;;;;;4895240;29;20524;-87
2023/11/20 17:34:51;;;;;;;1.80;1.20;;;10.00;97.30;;;;;;4895025;29;20512;-87
2023/11/20 17:37:17;;;;;;;1.20;1.10;;;10.00;97.30;;;;;;4877979;29;20197;-87
2023/11/20 17:39:42;;;;;;;1.63;1.60;;;10.00;97.30;;;;;;4878155;29;20209;-87
2023/11/20 17:42:08;;;;;;;3.00;1.27;;;9.90;97.30;;;;;;4877882;29;20726;-87
2023/11/20 17:44:36;;;;;;;1.20;1.10;;;9.90;97.30;;;;;;4894441;29;20566;-87
2023/11/20 17:47:03;;;;;;;7.20;1.37;;;9.80;97.30;;;;;;4877917;29;20428;-88
2023/11/20 17:49:28;;;;;;;24.07;1.87;;;9.80;97.30;;;;;;4877675;29;20828;-87